Aérodrome :
LOGIN :

S'inscrire | Disclaimer

   EN    FR    IT 

 










Légende :    VFR   VFR Marginal   IFR   IFR Intensif   IFR Très Intensif
Visi : 
Plafond : 
>= 8 km
>= 3000ft
5 à 8 km
1000 à 3000 ft
1500m à 5 km
500 à 1000 ft
800 à 1500m
200 à 500 ft
< 800m
< 200 ft
Symboles :   Orages  Brouillard  Fortes neiges  Fortes précipitations  Vent > 20 kt
SIGMETs :   Divers  Orages  Givrage  Turbulence  Onde Orograph.  Cendres Volcan.







- Altitude de l'aérodrome : 587 ft
- Code IATA : XCR
- Voir les cartes d'approche


LFOK - Chalons Vatry

DERNIER METAR :
  • 101400Z AUTO 29010KT 9999 FEW020/// SCT026/// BKN052/// ///TCU 08/06 Q1026 TEMPO 4000 SHRA

METARs EXPIRÉS :
  • 101330Z AUTO 30011KT 9999 SCT025 BKN031 OVC043 08/05 Q1026 TEMPO 4000 SHRA BKN015TCU
  • 101300Z AUTO 30010KT 9999 FEW021 BKN042 09/06 Q1026 TEMPO 4000 SHRA BKN015TCU
  • 101230Z AUTO 30011KT 9999 FEW019 BKN040 09/06 Q1026 TEMPO 4000 SHRA BKN015TCU
  • 101200Z AUTO 30011KT 9999 FEW024 BKN045 08/06 Q1026 TEMPO 4000 SHRA BKN015TCU
  • 101130Z AUTO 29011KT 9999 SCT011 BKN016 BKN022 08/07 Q1026 TEMPO 4000 SHRA BKN015TCU
  • 101100Z AUTO 27013KT 9999 FEW012 SCT019 BKN046 09/06 Q1026 NOSIG

TAF TAF LFOK
Valide du 10 à 12h jusqu'au 11 à 12h UTC


101100Z 1012/1112 30013KT 9999 BKN025
TEMPO 1012/1018 4000 SHRA BKN015TCU
BECMG 1018/1021 VRB02KT
BECMG 1023/1102 3000 BR
PROB40 1102/1108 0300 FG VV///
BECMG 1109/1112 9999 NSW
Pas de NOTAMs connus pour ce terrain.



MET'MAP, la Météo Aéronautique d'un coup d'oeil ! - Copyright ORBIFLY Décembre 2007 - Disclaimer

ORBIFLY MET'MAP TEAM :

Programmation & Développement : Alexandra Zaïnal
Conception & Développement : Baudouin d'Aumeries
Co-Programmation & Développement : Marc-Olivier Méhu
Soutien technique & logistique : Manuel Goepfert

Contact : metmap@orbifly.com




SOURCES & CREDITS :

   NOAA